Prevelis — SYDL — position and weather

sailwx.info

Track history (hours):
 
Tides and Currents Weather Stations Pressure Air Temp Water Temp Dewpoint Dewpoint Depression Visibility Wind Speed Wind Dir Waves Ship Positions

Prevelis

Last reported at 2017-Jan-20 17:30 UTC. Time now 2017-Jan-20 20:05 UTC.
Position N 37°35' E 023°46'.

Length 143 m; draft 5.5 m.

Type: Passenger vessel. MMSI: 239297000.

Date/timePositionNaut miles runAvg speedWind from/ knotsBaromVisibWave heightAir tempDewpointWater temp
2017-Jan-20 17:30N 37°35' E 023°46'1617.5
2017-Jan-20 16:33N 37°49' E 023°37'7 7.1
2017-Jan-20 15:34N 37°56' E 023°37'0 0.0
2017-Jan-20 14:34N 37°56' E 023°37'0 0.0
2017-Jan-20 13:33N 37°56' E 023°37'0 0.0
2017-Jan-20 12:33N 37°56' E 023°37'0 0.0
2017-Jan-20 11:34N 37°56' E 023°37'0 0.0
2017-Jan-20 10:33N 37°56' E 023°37'0 0.0
2017-Jan-20 09:33N 37°56' E 023°37'0 0.0
2017-Jan-20 08:34N 37°56' E 023°37'0 0.0
2017-Jan-20 07:34N 37°56' E 023°37'0 0.0
2017-Jan-20 06:34N 37°56' E 023°37'1 0.9
2017-Jan-20 05:34N 37°56' E 023°37'1111.4
2017-Jan-20 04:34N 37°46' E 023°43'  
2017-Jan-17 19:33N 37°42' E 023°42'1515.1
2017-Jan-17 18:34N 37°56' E 023°37'0 0.0
2017-Jan-17 17:33N 37°56' E 023°37'0 0.0
2017-Jan-17 16:33N 37°56' E 023°37'0 0.0
2017-Jan-17 15:34N 37°56' E 023°37'0 0.0
2017-Jan-17 14:34N 37°56' E 023°37'0 0.0
2017-Jan-17 13:34N 37°56' E 023°37'0 0.0
2017-Jan-17 12:34N 37°56' E 023°37'0 0.0
2017-Jan-17 11:34N 37°56' E 023°37'0 0.0
2017-Jan-17 10:34N 37°56' E 023°37'0 0.0
2017-Jan-17 09:34N 37°56' E 023°37'0 0.0
2017-Jan-17 08:34N 37°56' E 023°37'0 0.0
2017-Jan-17 07:33N 37°56' E 023°37'0 0.0
2017-Jan-17 06:32N 37°56' E 023°37'0 0.0
2017-Jan-17 05:32N 37°56' E 023°37'0 0.0
2017-Jan-17 04:33N 37°56' E 023°37'0 0.0
2017-Jan-17 03:12N 37°56' E 023°37'0 0.0
2017-Jan-17 02:31N 37°56' E 023°37'0 0.0
2017-Jan-17 01:30N 37°56' E 023°37'0 0.0
2017-Jan-17 00:31N 37°56' E 023°37'0 0.0
2017-Jan-16 23:29N 37°56' E 023°37'0 0.0
2017-Jan-16 22:27N 37°56' E 023°37'0 0.0
2017-Jan-16 21:31N 37°56' E 023°37'0 0.0
2017-Jan-16 20:16N 37°56' E 023°37'0 0.0
2017-Jan-16 19:16N 37°56' E 023°37'0 0.0
2017-Jan-16 18:31N 37°56' E 023°37'0 0.0
2017-Jan-16 17:33N 37°56' E 023°37'0 0.0
2017-Jan-16 11:16N 37°56' E 023°37'0 0.0
2017-Jan-16 10:34N 37°56' E 023°37'0 0.0
2017-Jan-16 09:34N 37°56' E 023°37'0 0.0
2017-Jan-16 08:33N 37°56' E 023°37'2 2.2
2017-Jan-16 07:33N 37°54' E 023°37'1818.0
2017-Jan-16 06:33N 37°38' E 023°46'  
2017-Jan-13 18:09N 37°34' E 023°46'1017.5
2017-Jan-13 17:34N 37°44' E 023°40'1312.9
2017-Jan-13 16:33N 37°56' E 023°37'0 0.0
2017-Jan-13 15:33N 37°56' E 023°37'0 0.0
2017-Jan-13 14:33N 37°56' E 023°37'0 0.0
2017-Jan-13 13:33N 37°56' E 023°37'0 0.0
2017-Jan-13 12:33N 37°56' E 023°37'0 0.0
2017-Jan-13 11:33N 37°56' E 023°37'0 0.0
2017-Jan-13 10:33N 37°56' E 023°37'0 0.0
2017-Jan-13 09:33N 37°56' E 023°37'0 0.0
2017-Jan-13 08:33N 37°56' E 023°37'1 0.7
2017-Jan-13 07:34N 37°56' E 023°37'1817.8
2017-Jan-13 06:33N 37°40' E 023°46'  
2017-Jan-10 20:08N 37°35' E 023°46'1017.3
2017-Jan-10 19:33N 37°44' E 023°40'1212.4
2017-Jan-10 18:33N 37°56' E 023°37'0 0.0
2017-Jan-10 17:33N 37°56' E 023°37'  
Track history (hours):
 
Tides and Currents Weather Stations Pressure Air Temp Water Temp Dewpoint Dewpoint Depression Visibility Wind Speed Wind Dir Waves Ship Positions

Prevelis

Last reported at 2017-Jan-20 17:30 UTC. Time now 2017-Jan-20 20:05 UTC.
Position N 37°35' E 023°46'.

Length 143 m; draft 5.5 m.

Type: Passenger vessel. MMSI: 239297000.

Date/timePositionNaut miles runAvg speedWind from/ knotsBaromVisibWave heightAir tempDewpointWater temp
2017-Jan-20 17:30N 37°35' E 023°46'1617.5
2017-Jan-20 16:33N 37°49' E 023°37'7 7.1
2017-Jan-20 15:34N 37°56' E 023°37'0 0.0
2017-Jan-20 14:34N 37°56' E 023°37'0 0.0
2017-Jan-20 13:33N 37°56' E 023°37'0 0.0
2017-Jan-20 12:33N 37°56' E 023°37'0 0.0
2017-Jan-20 11:34N 37°56' E 023°37'0 0.0
2017-Jan-20 10:33N 37°56' E 023°37'0 0.0
2017-Jan-20 09:33N 37°56' E 023°37'0 0.0
2017-Jan-20 08:34N 37°56' E 023°37'0 0.0
2017-Jan-20 07:34N 37°56' E 023°37'0 0.0
2017-Jan-20 06:34N 37°56' E 023°37'1 0.9
2017-Jan-20 05:34N 37°56' E 023°37'1111.4
2017-Jan-20 04:34N 37°46' E 023°43'  
2017-Jan-17 19:33N 37°42' E 023°42'1515.1
2017-Jan-17 18:34N 37°56' E 023°37'0 0.0
2017-Jan-17 17:33N 37°56' E 023°37'0 0.0
2017-Jan-17 16:33N 37°56' E 023°37'0 0.0
2017-Jan-17 15:34N 37°56' E 023°37'0 0.0
2017-Jan-17 14:34N 37°56' E 023°37'0 0.0
2017-Jan-17 13:34N 37°56' E 023°37'0 0.0
2017-Jan-17 12:34N 37°56' E 023°37'0 0.0
2017-Jan-17 11:34N 37°56' E 023°37'0 0.0
2017-Jan-17 10:34N 37°56' E 023°37'0 0.0
2017-Jan-17 09:34N 37°56' E 023°37'0 0.0
2017-Jan-17 08:34N 37°56' E 023°37'0 0.0
2017-Jan-17 07:33N 37°56' E 023°37'0 0.0
2017-Jan-17 06:32N 37°56' E 023°37'0 0.0
2017-Jan-17 05:32N 37°56' E 023°37'0 0.0
2017-Jan-17 04:33N 37°56' E 023°37'0 0.0
2017-Jan-17 03:12N 37°56' E 023°37'0 0.0
2017-Jan-17 02:31N 37°56' E 023°37'0 0.0
2017-Jan-17 01:30N 37°56' E 023°37'0 0.0
2017-Jan-17 00:31N 37°56' E 023°37'0 0.0
2017-Jan-16 23:29N 37°56' E 023°37'0 0.0
2017-Jan-16 22:27N 37°56' E 023°37'0 0.0
2017-Jan-16 21:31N 37°56' E 023°37'0 0.0
2017-Jan-16 20:16N 37°56' E 023°37'0 0.0
2017-Jan-16 19:16N 37°56' E 023°37'0 0.0
2017-Jan-16 18:31N 37°56' E 023°37'0 0.0
2017-Jan-16 17:33N 37°56' E 023°37'0 0.0
2017-Jan-16 11:16N 37°56' E 023°37'0 0.0
2017-Jan-16 10:34N 37°56' E 023°37'0 0.0
2017-Jan-16 09:34N 37°56' E 023°37'0 0.0
2017-Jan-16 08:33N 37°56' E 023°37'2 2.2
2017-Jan-16 07:33N 37°54' E 023°37'1818.0
2017-Jan-16 06:33N 37°38' E 023°46'  
2017-Jan-13 18:09N 37°34' E 023°46'1017.5
2017-Jan-13 17:34N 37°44' E 023°40'1312.9
2017-Jan-13 16:33N 37°56' E 023°37'0 0.0
2017-Jan-13 15:33N 37°56' E 023°37'0 0.0
2017-Jan-13 14:33N 37°56' E 023°37'0 0.0
2017-Jan-13 13:33N 37°56' E 023°37'0 0.0
2017-Jan-13 12:33N 37°56' E 023°37'0 0.0
2017-Jan-13 11:33N 37°56' E 023°37'0 0.0
2017-Jan-13 10:33N 37°56' E 023°37'0 0.0
2017-Jan-13 09:33N 37°56' E 023°37'0 0.0
2017-Jan-13 08:33N 37°56' E 023°37'1 0.7
2017-Jan-13 07:34N 37°56' E 023°37'1817.8
2017-Jan-13 06:33N 37°40' E 023°46'  
2017-Jan-10 20:08N 37°35' E 023°46'1017.3
2017-Jan-10 19:33N 37°44' E 023°40'1212.4
2017-Jan-10 18:33N 37°56' E 023°37'0 0.0
2017-Jan-10 17:33N 37°56' E 023°37'  

Dump ship's entire track history